Time;durP1;ratioP1;P1;durP2;ratioP2;P2;SDS_P1;SDS_P2;PMS_P1;PMS_P2;Temp;Humidity;BMP_temperature;BMP_pressure;BME280_temperature;BME280_humidity;BME280_pressure;Samples;Min_cycle;Max_cycle;Signal;HPM_P1;HPM_P2
2023/03/01 00:01:49;;;;;;;34.08;19.75;;;;;;;;;;5019419;28;20385;-76
2023/03/01 00:04:15;;;;;;;35.10;19.27;;;;;;;;;;5051958;28;20044;-76
2023/03/01 00:06:45;;;;;;;35.63;18.67;;;;;;;;;;5051857;28;20045;-76
2023/03/01 00:09:12;;;;;;;32.75;18.23;;;;;;;;;;5038650;28;20037;-76
2023/03/01 00:11:38;;;;;;;33.10;18.05;;;;;;;;;;5051871;28;20076;-76
2023/03/01 00:14:06;;;;;;;30.10;17.35;;;;;;;;;;5035058;28;20079;-76
2023/03/01 00:16:42;;;;;;;36.85;19.00;;;;;;;;;;5051927;28;20395;-76
2023/03/01 00:19:11;;;;;;;40.22;19.48;;;;;;;;;;5051564;28;20079;-76
2023/03/01 00:21:37;;;;;;;30.35;17.60;;;;;;;;;;5051485;28;20084;-76
2023/03/01 00:24:04;;;;;;;36.13;19.15;;;;;;;;;;5051865;28;20071;-77
2023/03/01 00:26:30;;;;;;;31.42;17.60;;;;;;;;;;5039793;28;20044;-77
2023/03/01 00:28:57;;;;;;;38.80;19.70;;;;;;;;;;5061793;28;20620;-76
2023/03/01 00:31:24;;;;;;;35.63;19.15;;;;;;;;;;5051314;28;20044;-76
2023/03/01 00:33:53;;;;;;;34.20;19.02;;;;;;;;;;5052664;28;20055;-76
2023/03/01 00:36:19;;;;;;;33.88;17.23;;;;;;;;;;5050785;28;20051;-76
2023/03/01 00:38:46;;;;;;;31.75;17.60;;;;;;;;;;5051997;28;20495;-76
2023/03/01 00:41:16;;;;;;;35.20;18.48;;;;;;;;;;5035047;28;20041;-76
2023/03/01 00:43:42;;;;;;;34.60;19.05;;;;;;;;;;5052373;28;20044;-76
2023/03/01 00:46:10;;;;;;;33.05;16.67;;;;;;;;;;5051470;28;20551;-75
2023/03/01 00:48:36;;;;;;;32.92;17.35;;;;;;;;;;5050766;28;20033;-76
2023/03/01 00:51:07;;;;;;;37.80;19.02;;;;;;;;;;5051653;28;20075;-77
2023/03/01 00:53:33;;;;;;;37.53;18.10;;;;;;;;;;5034069;28;20040;-77
2023/03/01 00:55:59;;;;;;;36.95;19.05;;;;;;;;;;5051522;28;20471;-77
2023/03/01 00:58:25;;;;;;;34.80;18.50;;;;;;;;;;5051077;28;20048;-77
2023/03/01 01:00:52;;;;;;;35.75;19.38;;;;;;;;;;5044763;28;20044;-77
2023/03/01 01:03:19;;;;;;;33.63;17.48;;;;;;;;;;5046777;28;20045;-77
2023/03/01 01:05:45;;;;;;;31.27;16.95;;;;;;;;;;5051219;28;20041;-77
2023/03/01 01:08:11;;;;;;;32.72;16.67;;;;;;;;;;5052431;28;20044;-77
2023/03/01 01:10:37;;;;;;;37.95;18.15;;;;;;;;;;5051905;28;20033;-77
2023/03/01 01:13:03;;;;;;;32.33;16.55;;;;;;;;;;5051171;28;20052;-77
2023/03/01 01:15:30;;;;;;;36.60;19.00;;;;;;;;;;5051991;28;20034;-77
2023/03/01 01:17:56;;;;;;;31.05;16.20;;;;;;;;;;5050920;28;20052;-77
2023/03/01 01:20:22;;;;;;;37.33;17.90;;;;;;;;;;5034243;28;20041;-77
2023/03/01 01:22:48;;;;;;;34.75;18.17;;;;;;;;;;5050794;28;20040;-76
2023/03/01 01:25:14;;;;;;;31.35;16.38;;;;;;;;;;5051028;28;20041;-77
2023/03/01 01:27:40;;;;;;;29.23;16.42;;;;;;;;;;5050475;28;20120;-77
2023/03/01 01:30:06;;;;;;;34.90;17.30;;;;;;;;;;5052377;28;20098;-76
2023/03/01 01:32:32;;;;;;;32.03;17.38;;;;;;;;;;5052001;28;20124;-76
2023/03/01 01:34:58;;;;;;;36.30;18.05;;;;;;;;;;5014636;28;20052;-75
2023/03/01 01:37:30;;;;;;;33.63;18.20;;;;;;;;;;5041803;28;20076;-77
2023/03/01 01:39:57;;;;;;;33.45;16.45;;;;;;;;;;5050866;28;20109;-77
2023/03/01 01:42:24;;;;;;;34.65;16.15;;;;;;;;;;5051047;28;20439;-77
2023/03/01 01:45:09;;;;;;;35.60;17.77;;;;;;;;;;5051829;28;20068;-75
2023/03/01 01:47:36;;;;;;;36.13;18.85;;;;;;;;;;5050658;28;20399;-77
2023/03/01 01:50:02;;;;;;;35.83;17.95;;;;;;;;;;5054150;28;20053;-77
2023/03/01 01:52:32;;;;;;;31.20;17.02;;;;;;;;;;5054590;28;20044;-77
2023/03/01 01:55:03;;;;;;;35.17;18.05;;;;;;;;;;5054226;28;20045;-76
2023/03/01 01:57:33;;;;;;;32.40;16.63;;;;;;;;;;5054283;28;20206;-75
2023/03/01 02:00:01;;;;;;;40.83;19.30;;;;;;;;;;5055544;28;20055;-75
2023/03/01 02:02:27;;;;;;;37.28;19.33;;;;;;;;;;5041651;28;20048;-75
2023/03/01 02:04:56;;;;;;;42.00;20.77;;;;;;;;;;5054111;28;20055;-77
2023/03/01 02:07:25;;;;;;;32.65;16.80;;;;;;;;;;5037565;28;20055;-78
2023/03/01 02:09:52;;;;;;;38.53;19.23;;;;;;;;;;5087361;28;20090;-77
2023/03/01 02:12:20;;;;;;;44.78;21.10;;;;;;;;;;5055414;28;20044;-75
2023/03/01 02:14:46;;;;;;;55.53;22.52;;;;;;;;;;5055245;28;20048;-75
2023/03/01 02:17:14;;;;;;;71.32;26.52;;;;;;;;;;5055316;28;20488;-75
2023/03/01 02:19:52;;;;;;;97.47;29.60;;;;;;;;;;5053636;28;20111;-75
2023/03/01 02:22:21;;;;;;;101.75;31.10;;;;;;;;;;5054026;28;20047;-77
2023/03/01 02:24:50;;;;;;;52.58;23.52;;;;;;;;;;5053854;28;20067;-77
2023/03/01 02:27:17;;;;;;;48.67;23.20;;;;;;;;;;5053861;28;20048;-78
2023/03/01 02:29:43;;;;;;;52.97;22.40;;;;;;;;;;5054936;28;20055;-77
2023/03/01 02:32:11;;;;;;;59.22;22.88;;;;;;;;;;5055047;28;20499;-77
2023/03/01 02:34:39;;;;;;;81.40;24.30;;;;;;;;;;5054846;28;20392;-75
2023/03/01 02:37:09;;;;;;;57.47;21.00;;;;;;;;;;5037363;28;20120;-78
2023/03/01 02:39:41;;;;;;;103.75;23.30;;;;;;;;;;5054831;28;20048;-77
2023/03/01 02:42:10;;;;;;;109.57;23.13;;;;;;;;;;5054575;28;20048;-77
2023/03/01 02:44:36;;;;;;;382.67;31.35;;;;;;;;;;5054691;28;20380;-77
2023/03/01 02:47:03;;;;;;;346.10;28.60;;;;;;;;;;5053881;28;20036;-78
2023/03/01 02:49:34;;;;;;;467.08;31.13;;;;;;;;;;5054016;28;20103;-78
2023/03/01 02:52:19;;;;;;;286.50;25.15;;;;;;;;;;5054995;28;20076;-76
2023/03/01 02:54:45;;;;;;;304.27;26.50;;;;;;;;;;5043473;28;20044;-77
2023/03/01 02:57:12;;;;;;;290.85;27.92;;;;;;;;;;5053460;28;20124;-77
2023/03/01 02:59:39;;;;;;;377.63;29.15;;;;;;;;;;5036522;28;20399;-77
2023/03/01 03:02:06;;;;;;;246.45;23.33;;;;;;;;;;5064202;28;20041;-75
2023/03/01 03:04:32;;;;;;;239.02;22.25;;;;;;;;;;5053748;28;20049;-75
2023/03/01 03:06:58;;;;;;;234.68;23.42;;;;;;;;;;5085162;28;20129;-75
2023/03/01 03:09:24;;;;;;;224.80;21.90;;;;;;;;;;5053277;28;20506;-76
2023/03/01 03:11:50;;;;;;;207.30;21.95;;;;;;;;;;5053216;28;20514;-77
2023/03/01 03:14:17;;;;;;;219.00;21.92;;;;;;;;;;5054415;28;20049;-77
2023/03/01 03:16:44;;;;;;;200.15;21.15;;;;;;;;;;5052759;28;20103;-77
2023/03/01 03:19:11;;;;;;;274.13;21.77;;;;;;;;;;5052978;28;20503;-77
2023/03/01 03:21:37;;;;;;;313.88;21.63;;;;;;;;;;5053109;28;20170;-77
2023/03/01 03:24:03;;;;;;;132.13;17.95;;;;;;;;;;5053248;28;20452;-77
2023/03/01 03:26:30;;;;;;;205.35;17.77;;;;;;;;;;5052535;28;20037;-77
2023/03/01 03:28:56;;;;;;;194.23;19.05;;;;;;;;;;5052897;28;20403;-77
2023/03/01 03:31:23;;;;;;;165.57;18.83;;;;;;;;;;5052460;28;20040;-77
2023/03/01 03:33:49;;;;;;;152.45;17.67;;;;;;;;;;5052637;28;20499;-77
2023/03/01 03:36:19;;;;;;;102.05;17.02;;;;;;;;;;5052452;28;20118;-75
2023/03/01 03:38:45;;;;;;;68.32;15.27;;;;;;;;;;5036023;28;20483;-74
2023/03/01 03:41:12;;;;;;;104.00;16.02;;;;;;;;;;5052440;28;20098;-75
2023/03/01 03:43:39;;;;;;;101.00;15.18;;;;;;;;;;5035933;28;20072;-75
2023/03/01 03:46:06;;;;;;;75.30;14.93;;;;;;;;;;5036063;28;20533;-75
2023/03/01 03:48:37;;;;;;;63.65;15.20;;;;;;;;;;5035668;28;20128;-75
2023/03/01 03:51:06;;;;;;;41.70;14.73;;;;;;;;;;5052245;28;20049;-77
2023/03/01 03:53:33;;;;;;;48.47;14.35;;;;;;;;;;5052249;28;20533;-74
2023/03/01 03:55:59;;;;;;;42.95;13.93;;;;;;;;;;5062864;28;20567;-78
2023/03/01 03:58:25;;;;;;;65.03;14.90;;;;;;;;;;5066614;28;20041;-78
2023/03/01 04:00:53;;;;;;;72.25;17.55;;;;;;;;;;5056810;28;20032;-75
2023/03/01 04:03:19;;;;;;;83.55;17.13;;;;;;;;;;5060445;28;20044;-74
2023/03/01 04:05:46;;;;;;;52.72;15.00;;;;;;;;;;5054709;28;20037;-75
2023/03/01 04:08:12;;;;;;;39.35;14.48;;;;;;;;;;5073201;28;20097;-75
2023/03/01 04:10:40;;;;;;;51.92;15.90;;;;;;;;;;5072426;28;20074;-77
2023/03/01 04:13:07;;;;;;;56.55;15.43;;;;;;;;;;5058416;28;20044;-75
2023/03/01 04:15:33;;;;;;;84.68;17.25;;;;;;;;;;5054962;28;20045;-75
2023/03/01 04:18:00;;;;;;;84.43;15.90;;;;;;;;;;5054662;28;20048;-78
2023/03/01 04:20:30;;;;;;;63.15;16.40;;;;;;;;;;5072119;28;20055;-74
2023/03/01 04:22:59;;;;;;;54.47;15.45;;;;;;;;;;5072548;28;20044;-74
2023/03/01 04:25:25;;;;;;;42.55;15.63;;;;;;;;;;5071820;28;20050;-74
2023/03/01 04:27:51;;;;;;;74.65;16.52;;;;;;;;;;5068672;28;20040;-74
2023/03/01 04:30:17;;;;;;;87.75;16.75;;;;;;;;;;5076634;28;20124;-74
2023/03/01 04:32:43;;;;;;;92.28;16.85;;;;;;;;;;5071554;28;20062;-74
2023/03/01 04:35:10;;;;;;;55.72;16.05;;;;;;;;;;5043128;28;20124;-74
2023/03/01 04:37:36;;;;;;;59.35;15.85;;;;;;;;;;5054678;28;20048;-74
2023/03/01 04:40:15;;;;;;;64.25;15.38;;;;;;;;;;5071534;28;20040;-74
2023/03/01 04:42:42;;;;;;;45.00;15.30;;;;;;;;;;5071501;28;20090;-74
2023/03/01 04:45:12;;;;;;;47.97;15.30;;;;;;;;;;5071271;28;20032;-74
2023/03/01 04:47:42;;;;;;;34.00;15.57;;;;;;;;;;5061209;28;20440;-74
2023/03/01 04:50:09;;;;;;;27.20;14.57;;;;;;;;;;5037896;28;20296;-74
2023/03/01 04:52:35;;;;;;;26.80;14.73;;;;;;;;;;5063110;28;20033;-74
2023/03/01 04:55:03;;;;;;;27.83;14.45;;;;;;;;;;5052408;28;20499;-77
2023/03/01 04:57:29;;;;;;;27.13;14.82;;;;;;;;;;5072756;28;20161;-78
2023/03/01 04:59:55;;;;;;;27.65;15.07;;;;;;;;;;5058732;28;20032;-78
2023/03/01 05:02:21;;;;;;;26.75;14.60;;;;;;;;;;5043074;28;20037;-78
2023/03/01 05:04:47;;;;;;;25.80;14.00;;;;;;;;;;5034110;28;20186;-78
2023/03/01 05:07:19;;;;;;;24.98;13.65;;;;;;;;;;5026650;28;20406;-78
2023/03/01 05:09:48;;;;;;;24.23;13.30;;;;;;;;;;5057830;28;20095;-78
2023/03/01 05:12:15;;;;;;;24.52;14.18;;;;;;;;;;5050749;28;20045;-78
2023/03/01 05:14:42;;;;;;;25.27;13.75;;;;;;;;;;5053370;28;20068;-74
2023/03/01 05:17:08;;;;;;;22.65;13.45;;;;;;;;;;5057335;28;20043;-78
2023/03/01 05:19:34;;;;;;;25.73;14.95;;;;;;;;;;5052176;28;20057;-78
2023/03/01 05:22:03;;;;;;;26.77;15.57;;;;;;;;;;5031185;28;20040;-78
2023/03/01 05:24:36;;;;;;;28.50;15.18;;;;;;;;;;5053045;28;20045;-73
2023/03/01 05:27:02;;;;;;;26.10;13.93;;;;;;;;;;5054860;28;20044;-78
2023/03/01 05:29:29;;;;;;;27.02;14.52;;;;;;;;;;5055977;28;20037;-78
2023/03/01 05:31:57;;;;;;;27.48;15.50;;;;;;;;;;5054612;28;20045;-79
2023/03/01 05:34:27;;;;;;;27.70;14.65;;;;;;;;;;5038148;28;20051;-78
2023/03/01 05:36:54;;;;;;;24.40;13.30;;;;;;;;;;5059815;28;20077;-78
2023/03/01 05:39:25;;;;;;;27.38;15.00;;;;;;;;;;5071461;28;20076;-78
2023/03/01 05:41:59;;;;;;;26.02;14.05;;;;;;;;;;5055265;28;20390;-78
2023/03/01 05:44:25;;;;;;;22.50;12.52;;;;;;;;;;5054683;28;20049;-78
2023/03/01 05:46:51;;;;;;;24.10;13.48;;;;;;;;;;5054946;28;20063;-77
2023/03/01 05:49:17;;;;;;;26.80;14.20;;;;;;;;;;5059530;28;20503;-73
2023/03/01 05:51:47;;;;;;;21.73;12.18;;;;;;;;;;5047299;28;20040;-73
2023/03/01 05:54:13;;;;;;;25.48;14.13;;;;;;;;;;5054437;28;20037;-73
2023/03/01 05:56:39;;;;;;;25.33;14.10;;;;;;;;;;5060782;28;20041;-73
2023/03/01 05:59:06;;;;;;;24.67;13.30;;;;;;;;;;5070738;28;20049;-79
2023/03/01 06:01:32;;;;;;;26.45;14.18;;;;;;;;;;5061026;28;20041;-79
2023/03/01 06:03:59;;;;;;;24.40;13.65;;;;;;;;;;5058448;28;20044;-79
2023/03/01 06:06:25;;;;;;;27.50;13.00;;;;;;;;;;5065575;28;20037;-79
2023/03/01 06:08:51;;;;;;;26.35;14.75;;;;;;;;;;5071827;28;20037;-73
2023/03/01 06:11:17;;;;;;;24.50;13.48;;;;;;;;;;5075242;28;20398;-73
2023/03/01 06:13:44;;;;;;;20.45;12.35;;;;;;;;;;5073913;28;20040;-73
2023/03/01 06:16:10;;;;;;;25.80;13.25;;;;;;;;;;5068581;28;20094;-73
2023/03/01 06:18:36;;;;;;;29.65;14.77;;;;;;;;;;5066550;28;20048;-74
2023/03/01 06:21:03;;;;;;;25.33;13.57;;;;;;;;;;5059535;28;20041;-73
2023/03/01 06:23:29;;;;;;;26.30;13.95;;;;;;;;;;5073916;28;20055;-78
2023/03/01 06:25:55;;;;;;;29.20;14.65;;;;;;;;;;5074069;28;20068;-78
2023/03/01 06:28:21;;;;;;;25.52;13.93;;;;;;;;;;5073677;28;20177;-78
2023/03/01 06:30:47;;;;;;;25.25;13.70;;;;;;;;;;5073908;28;20119;-78
2023/03/01 06:33:13;;;;;;;24.65;13.38;;;;;;;;;;5073896;28;20044;-78
2023/03/01 06:35:39;;;;;;;24.08;13.57;;;;;;;;;;5074244;28;20059;-78
2023/03/01 06:38:05;;;;;;;24.60;13.82;;;;;;;;;;5073448;28;20178;-73
2023/03/01 06:40:32;;;;;;;27.85;14.85;;;;;;;;;;5075228;28;20037;-73
2023/03/01 06:42:59;;;;;;;25.58;13.50;;;;;;;;;;5074610;28;20033;-73
2023/03/01 06:45:25;;;;;;;26.70;15.32;;;;;;;;;;5074683;28;20079;-73
2023/03/01 06:47:51;;;;;;;25.15;14.05;;;;;;;;;;5074825;28;20082;-74
2023/03/01 06:50:17;;;;;;;25.50;14.82;;;;;;;;;;5074576;28;20086;-73
2023/03/01 06:52:44;;;;;;;26.05;15.10;;;;;;;;;;5073674;28;20047;-74
2023/03/01 06:55:11;;;;;;;23.88;14.82;;;;;;;;;;5068922;28;20049;-78
2023/03/01 06:57:37;;;;;;;25.63;15.07;;;;;;;;;;5037368;28;20041;-78
2023/03/01 07:00:04;;;;;;;21.95;13.23;;;;;;;;;;5069090;28;20033;-79
2023/03/01 07:02:30;;;;;;;21.25;13.55;;;;;;;;;;5065015;28;20044;-79
2023/03/01 07:04:56;;;;;;;17.77;11.80;;;;;;;;;;5045593;28;20403;-79
2023/03/01 07:07:22;;;;;;;17.05;11.75;;;;;;;;;;5072390;28;20059;-79
2023/03/01 07:09:49;;;;;;;15.98;11.23;;;;;;;;;;5097208;28;20041;-80
2023/03/01 07:12:15;;;;;;;16.88;11.70;;;;;;;;;;5069655;28;20044;-80
2023/03/01 07:14:41;;;;;;;14.30;10.65;;;;;;;;;;5062129;28;20060;-79
2023/03/01 07:17:07;;;;;;;15.93;11.27;;;;;;;;;;5053508;28;20491;-75
2023/03/01 07:19:33;;;;;;;15.93;11.20;;;;;;;;;;5052888;28;20056;-74
2023/03/01 07:21:59;;;;;;;14.75;10.63;;;;;;;;;;5036717;28;20099;-80
2023/03/01 07:24:26;;;;;;;14.02;10.73;;;;;;;;;;5036536;28;20110;-80
2023/03/01 07:26:53;;;;;;;14.73;11.10;;;;;;;;;;5053913;28;20159;-80
2023/03/01 07:29:19;;;;;;;16.33;11.98;;;;;;;;;;5054032;28;20570;-75
2023/03/01 07:31:45;;;;;;;16.95;12.35;;;;;;;;;;5054864;28;20383;-75
2023/03/01 07:34:11;;;;;;;17.42;12.30;;;;;;;;;;5054081;28;20040;-76
2023/03/01 07:36:39;;;;;;;16.00;12.13;;;;;;;;;;5054498;28;20044;-75
2023/03/01 07:39:05;;;;;;;16.08;10.80;;;;;;;;;;5037090;28;20041;-80
2023/03/01 07:41:31;;;;;;;16.23;10.70;;;;;;;;;;5053157;28;20044;-79
2023/03/01 07:43:57;;;;;;;15.30;11.32;;;;;;;;;;5054240;28;20521;-79
2023/03/01 07:46:24;;;;;;;14.57;11.55;;;;;;;;;;5052345;28;20503;-80
2023/03/01 07:48:50;;;;;;;14.00;10.05;;;;;;;;;;5053108;28;20076;-80
2023/03/01 07:51:16;;;;;;;14.27;10.77;;;;;;;;;;5051955;28;20045;-80
2023/03/01 07:53:42;;;;;;;14.50;10.55;;;;;;;;;;5052450;28;20041;-80
2023/03/01 07:56:09;;;;;;;13.55;10.52;;;;;;;;;;5052410;28;20037;-80
2023/03/01 07:58:36;;;;;;;13.88;11.25;;;;;;;;;;5052272;28;20048;-80
2023/03/01 08:01:03;;;;;;;14.02;10.88;;;;;;;;;;5052120;28;20099;-80
2023/03/01 08:03:29;;;;;;;14.20;11.45;;;;;;;;;;5067005;28;20049;-79
2023/03/01 08:05:56;;;;;;;14.00;10.90;;;;;;;;;;5053471;28;20407;-79
2023/03/01 08:08:22;;;;;;;14.75;11.38;;;;;;;;;;5053022;28;20098;-79
2023/03/01 08:10:48;;;;;;;14.65;10.75;;;;;;;;;;5071514;28;20040;-79
2023/03/01 08:13:14;;;;;;;14.07;11.30;;;;;;;;;;5071814;28;20047;-79
2023/03/01 08:15:40;;;;;;;13.82;10.73;;;;;;;;;;5057980;28;20094;-79
2023/03/01 08:18:06;;;;;;;16.30;11.43;;;;;;;;;;5072856;28;20064;-79
2023/03/01 08:20:32;;;;;;;17.20;11.20;;;;;;;;;;5072341;28;20059;-79
2023/03/01 08:22:58;;;;;;;15.57;11.65;;;;;;;;;;5059934;28;20039;-79
2023/03/01 08:25:24;;;;;;;15.45;11.48;;;;;;;;;;5071691;28;20498;-79
2023/03/01 08:27:50;;;;;;;15.23;11.18;;;;;;;;;;5071595;28;20040;-79
2023/03/01 08:30:17;;;;;;;17.25;12.10;;;;;;;;;;5061935;28;20037;-79
2023/03/01 08:32:43;;;;;;;16.10;12.48;;;;;;;;;;5065488;28;20032;-76
2023/03/01 08:35:09;;;;;;;17.48;12.55;;;;;;;;;;5061377;28;20499;-77
2023/03/01 08:37:35;;;;;;;16.80;12.07;;;;;;;;;;5072519;28;20047;-77
2023/03/01 08:40:03;;;;;;;15.70;12.02;;;;;;;;;;5064853;28;20442;-77
2023/03/01 08:42:29;;;;;;;17.00;12.93;;;;;;;;;;5048243;28;20401;-77
2023/03/01 08:44:56;;;;;;;17.83;12.05;;;;;;;;;;5072443;28;20045;-77
2023/03/01 08:47:22;;;;;;;15.90;12.50;;;;;;;;;;5054605;28;20044;-77
2023/03/01 08:49:50;;;;;;;17.73;12.77;;;;;;;;;;5072242;28;20037;-77
2023/03/01 08:52:16;;;;;;;15.45;12.68;;;;;;;;;;5062942;28;20041;-78
2023/03/01 08:54:42;;;;;;;17.88;13.48;;;;;;;;;;5066938;28;20048;-79
2023/03/01 08:57:09;;;;;;;16.73;13.20;;;;;;;;;;5059129;28;20029;-79
2023/03/01 08:59:37;;;;;;;17.92;14.10;;;;;;;;;;5070229;28;20045;-79
2023/03/01 09:02:04;;;;;;;17.30;13.73;;;;;;;;;;5058677;28;20040;-79
2023/03/01 09:04:30;;;;;;;15.68;13.05;;;;;;;;;;5060308;28;20040;-77
2023/03/01 09:06:56;;;;;;;18.70;13.25;;;;;;;;;;5057077;28;20077;-78
2023/03/01 09:09:22;;;;;;;18.30;13.80;;;;;;;;;;5071073;28;20098;-79
2023/03/01 09:11:49;;;;;;;17.13;14.25;;;;;;;;;;5072381;28;20048;-79
2023/03/01 09:14:16;;;;;;;18.13;13.93;;;;;;;;;;5071022;28;20578;-79
2023/03/01 09:16:43;;;;;;;17.92;14.27;;;;;;;;;;5070767;28;20044;-79
2023/03/01 09:19:09;;;;;;;17.35;13.90;;;;;;;;;;5084523;28;20574;-80
2023/03/01 09:21:35;;;;;;;16.80;13.95;;;;;;;;;;5060113;28;20521;-79
2023/03/01 09:24:01;;;;;;;17.08;13.82;;;;;;;;;;5104598;28;20119;-80
2023/03/01 09:26:27;;;;;;;16.35;14.27;;;;;;;;;;5071940;28;20056;-80
2023/03/01 09:28:56;;;;;;;17.08;13.32;;;;;;;;;;5041439;28;20075;-80
2023/03/01 09:31:23;;;;;;;17.20;13.98;;;;;;;;;;5050375;28;20049;-80
2023/03/01 09:33:51;;;;;;;15.70;13.07;;;;;;;;;;5063833;28;20101;-81
2023/03/01 09:36:18;;;;;;;17.75;13.88;;;;;;;;;;5050117;28;20065;-80
2023/03/01 09:38:44;;;;;;;16.13;14.00;;;;;;;;;;5061128;28;20032;-78
2023/03/01 09:41:29;;;;;;;17.52;13.82;;;;;;;;;;5071873;28;20036;-78
2023/03/01 09:44:14;;;;;;;17.63;15.07;;;;;;;;;;5068410;28;20039;-78
2023/03/01 09:46:45;;;;;;;17.88;14.70;;;;;;;;;;5030507;28;20052;-77
2023/03/01 09:49:12;;;;;;;19.85;14.88;;;;;;;;;;5051869;28;20037;-78
2023/03/01 09:51:39;;;;;;;16.85;13.43;;;;;;;;;;5042325;28;20530;-78
2023/03/01 09:54:08;;;;;;;20.08;14.77;;;;;;;;;;5051881;28;20242;-78
2023/03/01 09:56:37;;;;;;;18.15;14.55;;;;;;;;;;5050393;28;20122;-78
2023/03/01 09:59:12;;;;;;;19.05;14.98;;;;;;;;;;5050883;28;20036;-77
2023/03/01 10:01:41;;;;;;;18.75;15.23;;;;;;;;;;5027912;28;20495;-77
2023/03/01 10:04:21;;;;;;;21.45;15.60;;;;;;;;;;5067138;28;20052;-77
2023/03/01 10:07:02;;;;;;;17.88;14.70;;;;;;;;;;5051408;28;20162;-77
2023/03/01 10:09:30;;;;;;;17.55;14.15;;;;;;;;;;5052345;28;20043;-77
2023/03/01 10:11:56;;;;;;;16.40;13.27;;;;;;;;;;5037810;28;20584;-77
2023/03/01 10:14:41;;;;;;;16.27;13.93;;;;;;;;;;5068408;28;20036;-80
2023/03/01 10:17:13;;;;;;;16.85;13.48;;;;;;;;;;5037495;28;20037;-80
2023/03/01 10:19:41;;;;;;;16.17;13.18;;;;;;;;;;5063469;28;20057;-80
2023/03/01 10:22:10;;;;;;;17.75;13.52;;;;;;;;;;5054142;28;20499;-77
2023/03/01 10:24:37;;;;;;;14.05;12.48;;;;;;;;;;5053774;28;20044;-80
2023/03/01 10:27:09;;;;;;;15.82;12.93;;;;;;;;;;5055311;28;20076;-77
2023/03/01 10:29:40;;;;;;;15.38;11.90;;;;;;;;;;5053801;28;20037;-81
2023/03/01 10:32:06;;;;;;;16.17;12.60;;;;;;;;;;5054331;28;20127;-80
2023/03/01 10:34:34;;;;;;;15.50;12.40;;;;;;;;;;5055057;28;20051;-81
2023/03/01 10:37:21;;;;;;;14.70;10.80;;;;;;;;;;5053663;28;20119;-81
2023/03/01 10:39:58;;;;;;;13.57;10.18;;;;;;;;;;5070855;28;20110;-81
2023/03/01 10:42:32;;;;;;;14.27;10.50;;;;;;;;;;5053944;28;20039;-77
2023/03/01 10:44:58;;;;;;;16.00;12.02;;;;;;;;;;5053474;28;20052;-80
2023/03/01 10:47:26;;;;;;;15.02;11.38;;;;;;;;;;5054966;28;20045;-80
2023/03/01 10:49:57;;;;;;;13.40;11.45;;;;;;;;;;5054880;28;20076;-80
2023/03/01 10:52:25;;;;;;;17.02;12.73;;;;;;;;;;5054674;28;20037;-80
2023/03/01 10:55:11;;;;;;;14.30;11.95;;;;;;;;;;5054705;28;20045;-80
2023/03/01 10:57:40;;;;;;;15.63;12.45;;;;;;;;;;5023434;28;20048;-76
2023/03/01 11:00:20;;;;;;;17.55;13.07;;;;;;;;;;5054905;28;20043;-76
2023/03/01 11:03:06;;;;;;;16.95;11.77;;;;;;;;;;5053079;28;20041;-76
2023/03/01 11:05:33;;;;;;;16.98;12.93;;;;;;;;;;5042884;28;20056;-80
2023/03/01 11:08:00;;;;;;;15.98;12.18;;;;;;;;;;5053751;28;20487;-77
2023/03/01 11:10:27;;;;;;;15.43;12.05;;;;;;;;;;5036596;28;20114;-76
2023/03/01 11:12:55;;;;;;;15.32;12.07;;;;;;;;;;5036006;28;20124;-76
2023/03/01 11:15:30;;;;;;;14.18;11.25;;;;;;;;;;5053006;28;20128;-76
2023/03/01 11:17:56;;;;;;;13.35;11.10;;;;;;;;;;5053008;28;20494;-76
2023/03/01 11:20:26;;;;;;;15.27;11.77;;;;;;;;;;5052801;28;20060;-76
2023/03/01 11:23:03;;;;;;;14.75;11.48;;;;;;;;;;5052657;28;20045;-80
2023/03/01 11:25:33;;;;;;;14.80;11.25;;;;;;;;;;5053554;28;20041;-75
2023/03/01 11:28:00;;;;;;;16.23;11.63;;;;;;;;;;5053020;28;20040;-80
2023/03/01 11:30:29;;;;;;;14.75;11.43;;;;;;;;;;5053154;28;20114;-76
2023/03/01 11:32:58;;;;;;;16.67;11.93;;;;;;;;;;5053083;28;20041;-75
2023/03/01 11:35:26;;;;;;;13.85;10.68;;;;;;;;;;5053251;28;20377;-78
2023/03/01 11:37:58;;;;;;;15.38;10.45;;;;;;;;;;5052531;28;20044;-76
2023/03/01 11:40:26;;;;;;;12.95;10.93;;;;;;;;;;5052530;28;20052;-76
2023/03/01 11:43:06;;;;;;;15.15;10.85;;;;;;;;;;5052064;28;20086;-76
2023/03/01 11:46:01;;;;;;;14.40;10.95;;;;;;;;;;5053539;28;20039;-76
2023/03/01 11:48:39;;;;;;;15.17;11.53;;;;;;;;;;5001078;28;20508;-80
2023/03/01 11:51:34;;;;;;;13.93;10.25;;;;;;;;;;5052772;28;20033;-79
2023/03/01 11:54:18;;;;;;;12.93;9.53;;;;;;;;;;4981807;28;20508;-80
2023/03/01 11:56:49;;;;;;;11.43;9.02;;;;;;;;;;5060978;28;20098;-79
2023/03/01 11:59:18;;;;;;;13.43;9.40;;;;;;;;;;5066794;28;20487;-79
2023/03/01 12:02:03;;;;;;;14.13;10.45;;;;;;;;;;5046083;28;20480;-80
2023/03/01 12:04:32;;;;;;;15.05;10.23;;;;;;;;;;5039937;28;20049;-76
2023/03/01 12:07:00;;;;;;;12.25;10.05;;;;;;;;;;5051735;28;20110;-76
2023/03/01 12:09:36;;;;;;;13.98;10.35;;;;;;;;;;5052026;28;20128;-76
2023/03/01 12:12:05;;;;;;;14.05;9.80;;;;;;;;;;5053018;28;20086;-74
2023/03/01 12:14:46;;;;;;;15.68;11.13;;;;;;;;;;5051917;28;20514;-75
2023/03/01 12:17:18;;;;;;;13.32;9.90;;;;;;;;;;5053165;28;20447;-78
2023/03/01 12:19:57;;;;;;;15.40;10.40;;;;;;;;;;5051572;28;20056;-78
2023/03/01 12:22:31;;;;;;;15.63;11.75;;;;;;;;;;5053059;28;20045;-78
2023/03/01 12:25:02;;;;;;;15.55;11.60;;;;;;;;;;5051647;28;20123;-78
2023/03/01 12:27:46;;;;;;;14.65;10.70;;;;;;;;;;5051885;28;20041;-79
2023/03/01 12:30:30;;;;;;;15.25;11.15;;;;;;;;;;5035142;28;20054;-79
2023/03/01 12:33:15;;;;;;;15.65;11.75;;;;;;;;;;5051320;28;20062;-78
2023/03/01 12:35:56;;;;;;;15.38;11.43;;;;;;;;;;5073119;28;20045;-79
2023/03/01 12:38:28;;;;;;;16.65;11.90;;;;;;;;;;5051709;28;20037;-79
2023/03/01 12:41:13;;;;;;;15.63;11.52;;;;;;;;;;5034931;28;20037;-78
2023/03/01 12:43:48;;;;;;;17.40;11.93;;;;;;;;;;5052687;28;20056;-78
2023/03/01 12:46:33;;;;;;;15.45;11.43;;;;;;;;;;5052685;28;20071;-78
2023/03/01 12:48:59;;;;;;;15.38;10.18;;;;;;;;;;5052570;28;20041;-77
2023/03/01 12:51:26;;;;;;;14.98;11.20;;;;;;;;;;5034795;28;20044;-78
2023/03/01 12:53:55;;;;;;;14.80;9.43;;;;;;;;;;5034314;28;20068;-77
2023/03/01 12:56:39;;;;;;;13.77;9.90;;;;;;;;;;5051287;28;20045;-77
2023/03/01 12:59:05;;;;;;;14.02;9.18;;;;;;;;;;5034484;28;20037;-77
2023/03/01 13:01:37;;;;;;;14.40;9.90;;;;;;;;;;5047333;28;20072;-77
2023/03/01 13:04:22;;;;;;;12.75;8.63;;;;;;;;;;5050695;28;20119;-75
2023/03/01 13:07:21;;;;;;;12.85;9.65;;;;;;;;;;5051150;28;20041;-76
2023/03/01 13:09:55;;;;;;;12.80;9.65;;;;;;;;;;5027999;28;20048;-75
2023/03/01 13:12:40;;;;;;;15.60;9.90;;;;;;;;;;5050721;28;20120;-74
2023/03/01 13:15:24;;;;;;;14.82;10.57;;;;;;;;;;5050585;28;20041;-75
2023/03/01 13:17:55;;;;;;;15.30;10.18;;;;;;;;;;5034017;28;20043;-75
2023/03/01 13:20:23;;;;;;;14.43;8.27;;;;;;;;;;5050768;28;20504;-74
2023/03/01 13:23:00;;;;;;;16.30;10.32;;;;;;;;;;5051901;28;20080;-74
2023/03/01 13:25:26;;;;;;;16.20;10.57;;;;;;;;;;5052490;28;20510;-77
2023/03/01 13:28:12;;;;;;;14.88;10.32;;;;;;;;;;5050474;28;20123;-74
2023/03/01 13:30:40;;;;;;;16.73;10.80;;;;;;;;;;5050890;28;20053;-74
2023/03/01 13:33:18;;;;;;;17.25;10.43;;;;;;;;;;5050539;28;20499;-74
2023/03/01 13:35:45;;;;;;;15.07;8.57;;;;;;;;;;5050964;28;20063;-73
2023/03/01 13:38:30;;;;;;;18.33;11.55;;;;;;;;;;5050389;28;20045;-74
2023/03/01 13:40:56;;;;;;;16.52;10.75;;;;;;;;;;5050636;28;20037;-74
2023/03/01 13:43:52;;;;;;;18.60;9.57;;;;;;;;;;5051732;28;20029;-74
2023/03/01 13:46:22;;;;;;;17.65;7.95;;;;;;;;;;5083911;28;20081;-74
2023/03/01 13:48:51;;;;;;;17.92;10.80;;;;;;;;;;5024978;28;20514;-74
2023/03/01 13:51:20;;;;;;;16.80;9.07;;;;;;;;;;5054645;28;20037;-74
2023/03/01 13:53:47;;;;;;;18.50;10.45;;;;;;;;;;5068424;28;20051;-74
2023/03/01 13:56:16;;;;;;;17.90;11.80;;;;;;;;;;5054530;28;20044;-74
2023/03/01 13:58:49;;;;;;;18.48;11.48;;;;;;;;;;5055585;28;20044;-74
2023/03/01 14:01:29;;;;;;;18.10;11.50;;;;;;;;;;5054361;28;20033;-74
2023/03/01 14:03:55;;;;;;;19.70;11.90;;;;;;;;;;5037598;28;20106;-74
2023/03/01 14:06:26;;;;;;;19.65;11.45;;;;;;;;;;5054819;28;20052;-74
2023/03/01 14:09:02;;;;;;;18.15;11.38;;;;;;;;;;5054304;28;20045;-74
2023/03/01 14:11:28;;;;;;;;;;;;;;;;;;5043313;28;20055;-74
2023/03/01 14:14:12;;;;;;;19.58;11.57;;;;;;;;;;5054401;28;19920;-74
2023/03/01 14:17:08;;;;;;;19.98;11.95;;;;;;;;;;5055542;28;20088;-74
2023/03/01 14:19:34;;;;;;;20.92;12.00;;;;;;;;;;5029474;28;20402;-74
2023/03/01 14:22:03;;;;;;;18.35;11.77;;;;;;;;;;5055237;28;20044;-74
2023/03/01 14:24:32;;;;;;;19.92;12.13;;;;;;;;;;5054109;28;20436;-74
2023/03/01 14:26:59;;;;;;;23.02;12.13;;;;;;;;;;5054364;28;20049;-74
2023/03/01 14:29:28;;;;;;;21.33;11.45;;;;;;;;;;5055110;28;20395;-73